Aviation Digital Data Service (ADDS)

Output produced by METARs form (1230 UTC 25 June 2019)
found at http://www.aviationweather.gov/metar/data/
 
METAR text: RJFF 251200Z 30004KT 250V350 CAVOK 26/19 Q1013 NOSIG RMK A2992
Conditions at: RJFF (FUKUOKA/ITAZUKE , JP) observed 1200 UTC 25 June 2019
Temperature: 26.0°C (79°F)
Dewpoint: 19.0°C (66°F) [RH = 65%]
Pressure (altimeter): 29.91 inches Hg (1013.0 mb)
Winds: from the WNW (300 degrees) at 5 MPH (4 knots; 2.1 m/s)
Visibility: 6 or more miles (10+ km)
Ceiling: ceiling and visibility are OK
Clouds: unknown
Weather: no significant weather observed at this time

METAR text: RJFF 251130Z 29005KT 230V320 CAVOK 26/19 Q1013 BECMG 16005KT
Conditions at: RJFF (FUKUOKA/ITAZUKE , JP) observed 1130 UTC 25 June 2019
Temperature: 26.0°C (79°F)
Dewpoint: 19.0°C (66°F) [RH = 65%]
Pressure (altimeter): 29.91 inches Hg (1013.0 mb)
Winds: from the WNW (290 degrees) at 6 MPH (5 knots; 2.6 m/s)
Visibility: 6 or more miles (10+ km)
Ceiling: ceiling and visibility are OK
Clouds: unknown
Weather: no significant weather observed at this time

METAR text: RJFF 251100Z 29007KT 240V030 CAVOK 27/18 Q1012 BECMG 14005KT
Conditions at: RJFF (FUKUOKA/ITAZUKE , JP) observed 1100 UTC 25 June 2019
Temperature: 27.0°C (81°F)
Dewpoint: 18.0°C (64°F) [RH = 58%]
Pressure (altimeter): 29.88 inches Hg (1012.0 mb)
Winds: from the WNW (290 degrees) at 8 MPH (7 knots; 3.6 m/s)
Visibility: 6 or more miles (10+ km)
Ceiling: ceiling and visibility are OK
Clouds: unknown
Weather: no significant weather observed at this time

METAR text: RJFF 251030Z 29006KT 230V330 CAVOK 27/19 Q1012 BECMG 14005KT
Conditions at: RJFF (FUKUOKA/ITAZUKE , JP) observed 1030 UTC 25 June 2019
Temperature: 27.0°C (81°F)
Dewpoint: 19.0°C (66°F) [RH = 62%]
Pressure (altimeter): 29.88 inches Hg (1012.0 mb)
Winds: from the WNW (290 degrees) at 7 MPH (6 knots; 3.1 m/s)
Visibility: 6 or more miles (10+ km)
Ceiling: ceiling and visibility are OK
Clouds: unknown
Weather: no significant weather observed at this time

METAR text: RJFF 251000Z 24005KT 140V310 CAVOK 27/18 Q1012 BECMG 14005KT
Conditions at: RJFF (FUKUOKA/ITAZUKE , JP) observed 1000 UTC 25 June 2019
Temperature: 27.0°C (81°F)
Dewpoint: 18.0°C (64°F) [RH = 58%]
Pressure (altimeter): 29.88 inches Hg (1012.0 mb)
Winds: from the WSW (240 degrees) at 6 MPH (5 knots; 2.6 m/s)
Visibility: 6 or more miles (10+ km)
Ceiling: ceiling and visibility are OK
Clouds: unknown
Weather: no significant weather observed at this time

METAR text: RJFF 250930Z 27004KT 160V320 CAVOK 28/19 Q1012 BECMG 11005KT RMK A2989
Conditions at: RJFF (FUKUOKA/ITAZUKE , JP) observed 0930 UTC 25 June 2019
Temperature: 28.0°C (82°F)
Dewpoint: 19.0°C (66°F) [RH = 58%]
Pressure (altimeter): 29.88 inches Hg (1012.0 mb)
Winds: from the W (270 degrees) at 5 MPH (4 knots; 2.1 m/s)
Visibility: 6 or more miles (10+ km)
Ceiling: ceiling and visibility are OK
Clouds: unknown
Weather: no significant weather observed at this time

METAR text: RJFF 250900Z 31004KT 270V350 CAVOK 28/18 Q1012 NOSIG RMK A2989
Conditions at: RJFF (FUKUOKA/ITAZUKE , JP) observed 0900 UTC 25 June 2019
Temperature: 28.0°C (82°F)
Dewpoint: 18.0°C (64°F) [RH = 55%]
Pressure (altimeter): 29.88 inches Hg (1012.0 mb)
Winds: from the NW (310 degrees) at 5 MPH (4 knots; 2.1 m/s)
Visibility: 6 or more miles (10+ km)
Ceiling: ceiling and visibility are OK
Clouds: unknown
Weather: no significant weather observed at this time

METAR text: RJFF 250830Z 26005KT 170V320 CAVOK 28/19 Q1012 NOSIG RMK A2989
Conditions at: RJFF (FUKUOKA/ITAZUKE , JP) observed 0830 UTC 25 June 2019
Temperature: 28.0°C (82°F)
Dewpoint: 19.0°C (66°F) [RH = 58%]
Pressure (altimeter): 29.88 inches Hg (1012.0 mb)
Winds: from the W (260 degrees) at 6 MPH (5 knots; 2.6 m/s)
Visibility: 6 or more miles (10+ km)
Ceiling: ceiling and visibility are OK
Clouds: unknown
Weather: no significant weather observed at this time

METAR text: RJFF 250800Z 27007KT 210V310 9999 FEW040 BKN/// 28/19 Q1012 NOSIG
Conditions at: RJFF (FUKUOKA/ITAZUKE , JP) observed 0800 UTC 25 June 2019
Temperature: 28.0°C (82°F)
Dewpoint: 19.0°C (66°F) [RH = 58%]
Pressure (altimeter): 29.88 inches Hg (1012.0 mb)
Winds: from the W (270 degrees) at 8 MPH (7 knots; 3.6 m/s)
Visibility: 6 or more miles (10+ km)
Ceiling: at least 12,000 feet AGL
Clouds: few clouds at 4000 feet AGL
Weather: no significant weather observed at this time

METAR text: RJFF 250730Z 28008KT 200V320 9999 FEW040 BKN/// 29/19 Q1011 NOSIG
Conditions at: RJFF (FUKUOKA/ITAZUKE , JP) observed 0730 UTC 25 June 2019
Temperature: 29.0°C (84°F)
Dewpoint: 19.0°C (66°F) [RH = 55%]
Pressure (altimeter): 29.85 inches Hg (1011.0 mb)
Winds: from the W (280 degrees) at 9 MPH (8 knots; 4.1 m/s)
Visibility: 6 or more miles (10+ km)
Ceiling: at least 12,000 feet AGL
Clouds: few clouds at 4000 feet AGL
Weather: no significant weather observed at this time

METAR text: RJFF 250700Z 27010KT 200V330 9999 FEW040 BKN/// 29/18 Q1011 BECMG 34008KT
Conditions at: RJFF (FUKUOKA/ITAZUKE , JP) observed 0700 UTC 25 June 2019
Temperature: 29.0°C (84°F)
Dewpoint: 18.0°C (64°F) [RH = 52%]
Pressure (altimeter): 29.85 inches Hg (1011.0 mb)
Winds: from the W (270 degrees) at 12 MPH (10 knots; 5.1 m/s)
Visibility: 6 or more miles (10+ km)
Ceiling: at least 12,000 feet AGL
Clouds: few clouds at 4000 feet AGL
Weather: no significant weather observed at this time

METAR text: RJFF 250630Z 27010KT 180V300 9999 FEW040 BKN/// 30/17 Q1011 BECMG 34008KT
Conditions at: RJFF (FUKUOKA/ITAZUKE , JP) observed 0630 UTC 25 June 2019
Temperature: 30.0°C (86°F)
Dewpoint: 17.0°C (63°F) [RH = 46%]
Pressure (altimeter): 29.85 inches Hg (1011.0 mb)
Winds: from the W (270 degrees) at 12 MPH (10 knots; 5.1 m/s)
Visibility: 6 or more miles (10+ km)
Ceiling: at least 12,000 feet AGL
Clouds: few clouds at 4000 feet AGL
Weather: no significant weather observed at this time

METAR text: RJFF 250624Z 26011KT 9999 FEW040 BKN/// 30/18 Q1011 RMK 1CU040 A2987
Conditions at: RJFF (FUKUOKA/ITAZUKE , JP) observed 0624 UTC 25 June 2019
Temperature: 30.0°C (86°F)
Dewpoint: 18.0°C (64°F) [RH = 49%]
Pressure (altimeter): 29.85 inches Hg (1011.0 mb)
Winds: from the W (260 degrees) at 13 MPH (11 knots; 5.7 m/s)
Visibility: 6 or more miles (10+ km)
Ceiling: at least 12,000 feet AGL
Clouds: few clouds at 4000 feet AGL
Weather: no significant weather observed at this time

METAR text: RJFF 250600Z 32008KT 280V350 9999 FEW035 BKN/// 30/18 Q1011 NOSIG
Conditions at: RJFF (FUKUOKA/ITAZUKE , JP) observed 0600 UTC 25 June 2019
Temperature: 30.0°C (86°F)
Dewpoint: 18.0°C (64°F) [RH = 49%]
Pressure (altimeter): 29.85 inches Hg (1011.0 mb)
Winds: from the NW (320 degrees) at 9 MPH (8 knots; 4.1 m/s)
Visibility: 6 or more miles (10+ km)
Ceiling: at least 12,000 feet AGL
Clouds: few clouds at 3500 feet AGL
Weather: no significant weather observed at this time

METAR text: RJFF 250530Z 32008KT 260V350 9999 FEW035 BKN/// 30/17 Q1012 NOSIG
Conditions at: RJFF (FUKUOKA/ITAZUKE , JP) observed 0530 UTC 25 June 2019
Temperature: 30.0°C (86°F)
Dewpoint: 17.0°C (63°F) [RH = 46%]
Pressure (altimeter): 29.88 inches Hg (1012.0 mb)
Winds: from the NW (320 degrees) at 9 MPH (8 knots; 4.1 m/s)
Visibility: 6 or more miles (10+ km)
Ceiling: at least 12,000 feet AGL
Clouds: few clouds at 3500 feet AGL
Weather: no significant weather observed at this time

METAR text: RJFF 250500Z 34007KT 300V030 9999 FEW035 BKN/// 31/17 Q1012 NOSIG
Conditions at: RJFF (FUKUOKA/ITAZUKE , JP) observed 0500 UTC 25 June 2019
Temperature: 31.0°C (88°F)
Dewpoint: 17.0°C (63°F) [RH = 43%]
Pressure (altimeter): 29.88 inches Hg (1012.0 mb)
Winds: from the NNW (340 degrees) at 8 MPH (7 knots; 3.6 m/s)
Visibility: 6 or more miles (10+ km)
Ceiling: at least 12,000 feet AGL
Clouds: few clouds at 3500 feet AGL
Weather: no significant weather observed at this time

METAR text: RJFF 250430Z 31008KT 280V340 9999 FEW035 BKN/// 30/18 Q1012 NOSIG
Conditions at: RJFF (FUKUOKA/ITAZUKE , JP) observed 0430 UTC 25 June 2019
Temperature: 30.0°C (86°F)
Dewpoint: 18.0°C (64°F) [RH = 49%]
Pressure (altimeter): 29.88 inches Hg (1012.0 mb)
Winds: from the NW (310 degrees) at 9 MPH (8 knots; 4.1 m/s)
Visibility: 6 or more miles (10+ km)
Ceiling: at least 12,000 feet AGL
Clouds: few clouds at 3500 feet AGL
Weather: no significant weather observed at this time

METAR text: RJFF 250400Z 33009KT 280V350 9999 FEW035 BKN/// 30/18 Q1013 NOSIG
Conditions at: RJFF (FUKUOKA/ITAZUKE , JP) observed 0400 UTC 25 June 2019
Temperature: 30.0°C (86°F)
Dewpoint: 18.0°C (64°F) [RH = 49%]
Pressure (altimeter): 29.91 inches Hg (1013.0 mb)
Winds: from the NNW (330 degrees) at 10 MPH (9 knots; 4.6 m/s)
Visibility: 6 or more miles (10+ km)
Ceiling: at least 12,000 feet AGL
Clouds: few clouds at 3500 feet AGL
Weather: no significant weather observed at this time

METAR text: RJFF 250330Z 31009KT 9999 FEW035 29/17 Q1013 NOSIG RMK 1CU035 A2992
Conditions at: RJFF (FUKUOKA/ITAZUKE , JP) observed 0330 UTC 25 June 2019
Temperature: 29.0°C (84°F)
Dewpoint: 17.0°C (63°F) [RH = 48%]
Pressure (altimeter): 29.91 inches Hg (1013.0 mb)
Winds: from the NW (310 degrees) at 10 MPH (9 knots; 4.6 m/s)
Visibility: 6 or more miles (10+ km)
Ceiling: at least 12,000 feet AGL
Clouds: few clouds at 3500 feet AGL
Weather: no significant weather observed at this time

METAR text: RJFF 250300Z 32009KT 270V350 9999 FEW035 29/18 Q1013 NOSIG RMK 1CU035 A2994
Conditions at: RJFF (FUKUOKA/ITAZUKE , JP) observed 0300 UTC 25 June 2019
Temperature: 29.0°C (84°F)
Dewpoint: 18.0°C (64°F) [RH = 52%]
Pressure (altimeter): 29.91 inches Hg (1013.0 mb)
Winds: from the NW (320 degrees) at 10 MPH (9 knots; 4.6 m/s)
Visibility: 6 or more miles (10+ km)
Ceiling: at least 12,000 feet AGL
Clouds: few clouds at 3500 feet AGL
Weather: no significant weather observed at this time

METAR text: RJFF 250230Z 31008KT 260V350 9999 FEW035 28/18 Q1014 NOSIG RMK 1CU035 A2995
Conditions at: RJFF (FUKUOKA/ITAZUKE , JP) observed 0230 UTC 25 June 2019
Temperature: 28.0°C (82°F)
Dewpoint: 18.0°C (64°F) [RH = 55%]
Pressure (altimeter): 29.94 inches Hg (1014.0 mb)
Winds: from the NW (310 degrees) at 9 MPH (8 knots; 4.1 m/s)
Visibility: 6 or more miles (10+ km)
Ceiling: at least 12,000 feet AGL
Clouds: few clouds at 3500 feet AGL
Weather: no significant weather observed at this time

METAR text: RJFF 250200Z 32007KT 290V360 9999 FEW035 28/17 Q1014 NOSIG RMK 1CU035 A2995
Conditions at: RJFF (FUKUOKA/ITAZUKE , JP) observed 0200 UTC 25 June 2019
Temperature: 28.0°C (82°F)
Dewpoint: 17.0°C (63°F) [RH = 51%]
Pressure (altimeter): 29.94 inches Hg (1014.0 mb)
Winds: from the NW (320 degrees) at 8 MPH (7 knots; 3.6 m/s)
Visibility: 6 or more miles (10+ km)
Ceiling: at least 12,000 feet AGL
Clouds: few clouds at 3500 feet AGL
Weather: no significant weather observed at this time

METAR text: RJFF 250130Z 32006KT 230V360 9999 FEW030 27/16 Q1014 NOSIG RMK 1CU030 A2996
Conditions at: RJFF (FUKUOKA/ITAZUKE , JP) observed 0130 UTC 25 June 2019
Temperature: 27.0°C (81°F)
Dewpoint: 16.0°C (61°F) [RH = 51%]
Pressure (altimeter): 29.94 inches Hg (1014.0 mb)
Winds: from the NW (320 degrees) at 7 MPH (6 knots; 3.1 m/s)
Visibility: 6 or more miles (10+ km)
Ceiling: at least 12,000 feet AGL
Clouds: few clouds at 3000 feet AGL
Weather: no significant weather observed at this time

METAR text: RJFF 250100Z VRB03KT 9999 FEW040 27/16 Q1014 BECMG 33007KT
Conditions at: RJFF (FUKUOKA/ITAZUKE , JP) observed 0100 UTC 25 June 2019
Temperature: 27.0°C (81°F)
Dewpoint: 16.0°C (61°F) [RH = 51%]
Pressure (altimeter): 29.94 inches Hg (1014.0 mb)
Winds: variable direction winds at 3 MPH (3 knots; 1.5 m/s)
Visibility: 6 or more miles (10+ km)
Ceiling: at least 12,000 feet AGL
Clouds: few clouds at 4000 feet AGL
Weather: no significant weather observed at this time

METAR text: RJFF 250030Z VRB03KT CAVOK 25/15 Q1014 BECMG 33007KT
Conditions at: RJFF (FUKUOKA/ITAZUKE , JP) observed 0030 UTC 25 June 2019
Temperature: 25.0°C (77°F)
Dewpoint: 15.0°C (59°F) [RH = 54%]
Pressure (altimeter): 29.94 inches Hg (1014.0 mb)
Winds: variable direction winds at 3 MPH (3 knots; 1.5 m/s)
Visibility: 6 or more miles (10+ km)
Ceiling: ceiling and visibility are OK
Clouds: unknown
Weather: no significant weather observed at this time

METAR text: RJFF 250000Z VRB03KT CAVOK 24/16 Q1015 BECMG 33007KT
Conditions at: RJFF (FUKUOKA/ITAZUKE , JP) observed 0000 UTC 25 June 2019
Temperature: 24.0°C (75°F)
Dewpoint: 16.0°C (61°F) [RH = 61%]
Pressure (altimeter): 29.97 inches Hg (1015.0 mb)
Winds: variable direction winds at 3 MPH (3 knots; 1.5 m/s)
Visibility: 6 or more miles (10+ km)
Ceiling: ceiling and visibility are OK
Clouds: unknown
Weather: no significant weather observed at this time

METAR text: RJFF 242330Z VRB01KT CAVOK 24/16 Q1015 BECMG 33007KT RMK A2998
Conditions at: RJFF (FUKUOKA/ITAZUKE , JP) observed 2330 UTC 24 June 2019
Temperature: 24.0°C (75°F)
Dewpoint: 16.0°C (61°F) [RH = 61%]
Pressure (altimeter): 29.97 inches Hg (1015.0 mb)
Winds: variable direction winds at 1 MPH (1 knots; 0.5 m/s)
Visibility: 6 or more miles (10+ km)
Ceiling: ceiling and visibility are OK
Clouds: unknown
Weather: no significant weather observed at this time

METAR text: RJFF 242300Z VRB02KT CAVOK 22/16 Q1015 NOSIG RMK A2998
Conditions at: RJFF (FUKUOKA/ITAZUKE , JP) observed 2300 UTC 24 June 2019
Temperature: 22.0°C (72°F)
Dewpoint: 16.0°C (61°F) [RH = 69%]
Pressure (altimeter): 29.97 inches Hg (1015.0 mb)
Winds: variable direction winds at 2 MPH (2 knots; 1.0 m/s)
Visibility: 6 or more miles (10+ km)
Ceiling: ceiling and visibility are OK
Clouds: unknown
Weather: no significant weather observed at this time

METAR text: RJFF 242230Z VRB01KT CAVOK 21/16 Q1015 NOSIG RMK A2997
Conditions at: RJFF (FUKUOKA/ITAZUKE , JP) observed 2230 UTC 24 June 2019
Temperature: 21.0°C (70°F)
Dewpoint: 16.0°C (61°F) [RH = 73%]
Pressure (altimeter): 29.97 inches Hg (1015.0 mb)
Winds: variable direction winds at 1 MPH (1 knots; 0.5 m/s)
Visibility: 6 or more miles (10+ km)
Ceiling: ceiling and visibility are OK
Clouds: unknown
Weather: no significant weather observed at this time

METAR text: RJFF 242200Z VRB02KT 9999 FEW040 20/16 Q1015 NOSIG RMK 1CU040 A2997
Conditions at: RJFF (FUKUOKA/ITAZUKE , JP) observed 2200 UTC 24 June 2019
Temperature: 20.0°C (68°F)
Dewpoint: 16.0°C (61°F) [RH = 78%]
Pressure (altimeter): 29.97 inches Hg (1015.0 mb)
Winds: variable direction winds at 2 MPH (2 knots; 1.0 m/s)
Visibility: 6 or more miles (10+ km)
Ceiling: at least 12,000 feet AGL
Clouds: few clouds at 4000 feet AGL
Weather: no significant weather observed at this time

METAR text: RJFF 242130Z 12003KT 080V160 CAVOK 19/16 Q1015 NOSIG RMK A2997
Conditions at: RJFF (FUKUOKA/ITAZUKE , JP) observed 2130 UTC 24 June 2019
Temperature: 19.0°C (66°F)
Dewpoint: 16.0°C (61°F) [RH = 83%]
Pressure (altimeter): 29.97 inches Hg (1015.0 mb)
Winds: from the ESE (120 degrees) at 3 MPH (3 knots; 1.5 m/s)
Visibility: 6 or more miles (10+ km)
Ceiling: ceiling and visibility are OK
Clouds: unknown
Weather: no significant weather observed at this time

METAR text: RJFF 242100Z VRB02KT CAVOK 18/16 Q1014 NOSIG RMK A2997
Conditions at: RJFF (FUKUOKA/ITAZUKE , JP) observed 2100 UTC 24 June 2019
Temperature: 18.0°C (64°F)
Dewpoint: 16.0°C (61°F) [RH = 88%]
Pressure (altimeter): 29.94 inches Hg (1014.0 mb)
Winds: variable direction winds at 2 MPH (2 knots; 1.0 m/s)
Visibility: 6 or more miles (10+ km)
Ceiling: ceiling and visibility are OK
Clouds: unknown
Weather: no significant weather observed at this time

METAR text: RJFF 242030Z AUTO 10003KT 060V130 9999 NCD 18/15 Q1015 NOSIG RMK A2997
Conditions at: RJFF (FUKUOKA/ITAZUKE , JP) observed 2030 UTC 24 June 2019
Temperature: 18.0°C (64°F)
Dewpoint: 15.0°C (59°F) [RH = 83%]
Pressure (altimeter): 29.97 inches Hg (1015.0 mb)
Winds: from the E (100 degrees) at 3 MPH (3 knots; 1.5 m/s)
Visibility: 6 or more miles (10+ km)
Ceiling: at least 12,000 feet AGL
Clouds: sky clear below 12,000 feet AGL
Weather: no significant weather observed at this time

METAR text: RJFF 242000Z AUTO 12003KT 9999 NCD 18/15 Q1015 NOSIG RMK A2997
Conditions at: RJFF (FUKUOKA/ITAZUKE , JP) observed 2000 UTC 24 June 2019
Temperature: 18.0°C (64°F)
Dewpoint: 15.0°C (59°F) [RH = 83%]
Pressure (altimeter): 29.97 inches Hg (1015.0 mb)
Winds: from the ESE (120 degrees) at 3 MPH (3 knots; 1.5 m/s)
Visibility: 6 or more miles (10+ km)
Ceiling: at least 12,000 feet AGL
Clouds: sky clear below 12,000 feet AGL
Weather: no significant weather observed at this time

METAR text: RJFF 241930Z AUTO 14003KT 9999 NCD 17/15 Q1014 NOSIG RMK A2996
Conditions at: RJFF (FUKUOKA/ITAZUKE , JP) observed 1930 UTC 24 June 2019
Temperature: 17.0°C (63°F)
Dewpoint: 15.0°C (59°F) [RH = 88%]
Pressure (altimeter): 29.94 inches Hg (1014.0 mb)
Winds: from the SE (140 degrees) at 3 MPH (3 knots; 1.5 m/s)
Visibility: 6 or more miles (10+ km)
Ceiling: at least 12,000 feet AGL
Clouds: sky clear below 12,000 feet AGL
Weather: no significant weather observed at this time

METAR text: RJFF 241900Z AUTO 15003KT 9999 NCD 18/15 Q1014 NOSIG RMK A2996
Conditions at: RJFF (FUKUOKA/ITAZUKE , JP) observed 1900 UTC 24 June 2019
Temperature: 18.0°C (64°F)
Dewpoint: 15.0°C (59°F) [RH = 83%]
Pressure (altimeter): 29.94 inches Hg (1014.0 mb)
Winds: from the SSE (150 degrees) at 3 MPH (3 knots; 1.5 m/s)
Visibility: 6 or more miles (10+ km)
Ceiling: at least 12,000 feet AGL
Clouds: sky clear below 12,000 feet AGL
Weather: no significant weather observed at this time

METAR text: RJFF 241830Z AUTO 05004KT 9999 NCD 18/15 Q1014 NOSIG RMK A2996
Conditions at: RJFF (FUKUOKA/ITAZUKE , JP) observed 1830 UTC 24 June 2019
Temperature: 18.0°C (64°F)
Dewpoint: 15.0°C (59°F) [RH = 83%]
Pressure (altimeter): 29.94 inches Hg (1014.0 mb)
Winds: from the NE (50 degrees) at 5 MPH (4 knots; 2.1 m/s)
Visibility: 6 or more miles (10+ km)
Ceiling: at least 12,000 feet AGL
Clouds: sky clear below 12,000 feet AGL
Weather: no significant weather observed at this time

METAR text: RJFF 241800Z AUTO 06003KT 9999 NCD 18/16 Q1014 NOSIG RMK A2996
Conditions at: RJFF (FUKUOKA/ITAZUKE , JP) observed 1800 UTC 24 June 2019
Temperature: 18.0°C (64°F)
Dewpoint: 16.0°C (61°F) [RH = 88%]
Pressure (altimeter): 29.94 inches Hg (1014.0 mb)
Winds: from the ENE (60 degrees) at 3 MPH (3 knots; 1.5 m/s)
Visibility: 6 or more miles (10+ km)
Ceiling: at least 12,000 feet AGL
Clouds: sky clear below 12,000 feet AGL
Weather: no significant weather observed at this time

METAR text: RJFF 241730Z AUTO 02003KT 9999 NCD 18/15 Q1014 NOSIG RMK A2996
Conditions at: RJFF (FUKUOKA/ITAZUKE , JP) observed 1730 UTC 24 June 2019
Temperature: 18.0°C (64°F)
Dewpoint: 15.0°C (59°F) [RH = 83%]
Pressure (altimeter): 29.94 inches Hg (1014.0 mb)
Winds: from the NNE (20 degrees) at 3 MPH (3 knots; 1.5 m/s)
Visibility: 6 or more miles (10+ km)
Ceiling: at least 12,000 feet AGL
Clouds: sky clear below 12,000 feet AGL
Weather: no significant weather observed at this time

METAR text: RJFF 241700Z AUTO 04003KT 9999 NCD 18/16 Q1014 NOSIG RMK A2995
Conditions at: RJFF (FUKUOKA/ITAZUKE , JP) observed 1700 UTC 24 June 2019
Temperature: 18.0°C (64°F)
Dewpoint: 16.0°C (61°F) [RH = 88%]
Pressure (altimeter): 29.94 inches Hg (1014.0 mb)
Winds: from the NE (40 degrees) at 3 MPH (3 knots; 1.5 m/s)
Visibility: 6 or more miles (10+ km)
Ceiling: at least 12,000 feet AGL
Clouds: sky clear below 12,000 feet AGL
Weather: no significant weather observed at this time

METAR text: RJFF 241630Z AUTO 10002KT 9999 NCD 18/16 Q1014 NOSIG RMK A2995
Conditions at: RJFF (FUKUOKA/ITAZUKE , JP) observed 1630 UTC 24 June 2019
Temperature: 18.0°C (64°F)
Dewpoint: 16.0°C (61°F) [RH = 88%]
Pressure (altimeter): 29.94 inches Hg (1014.0 mb)
Winds: from the E (100 degrees) at 2 MPH (2 knots; 1.0 m/s)
Visibility: 6 or more miles (10+ km)
Ceiling: at least 12,000 feet AGL
Clouds: sky clear below 12,000 feet AGL
Weather: no significant weather observed at this time

METAR text: RJFF 241600Z AUTO 09003KT 050V110 9999 NCD 19/16 Q1014 NOSIG RMK A2995
Conditions at: RJFF (FUKUOKA/ITAZUKE , JP) observed 1600 UTC 24 June 2019
Temperature: 19.0°C (66°F)
Dewpoint: 16.0°C (61°F) [RH = 83%]
Pressure (altimeter): 29.94 inches Hg (1014.0 mb)
Winds: from the E (90 degrees) at 3 MPH (3 knots; 1.5 m/s)
Visibility: 6 or more miles (10+ km)
Ceiling: at least 12,000 feet AGL
Clouds: sky clear below 12,000 feet AGL
Weather: no significant weather observed at this time

METAR text: RJFF 241530Z AUTO 10003KT 9999 NCD 19/16 Q1014 NOSIG RMK A2996
Conditions at: RJFF (FUKUOKA/ITAZUKE , JP) observed 1530 UTC 24 June 2019
Temperature: 19.0°C (66°F)
Dewpoint: 16.0°C (61°F) [RH = 83%]
Pressure (altimeter): 29.94 inches Hg (1014.0 mb)
Winds: from the E (100 degrees) at 3 MPH (3 knots; 1.5 m/s)
Visibility: 6 or more miles (10+ km)
Ceiling: at least 12,000 feet AGL
Clouds: sky clear below 12,000 feet AGL
Weather: no significant weather observed at this time

METAR text: RJFF 241500Z AUTO 10003KT 9999 NCD 19/16 Q1014 NOSIG RMK A2996
Conditions at: RJFF (FUKUOKA/ITAZUKE , JP) observed 1500 UTC 24 June 2019
Temperature: 19.0°C (66°F)
Dewpoint: 16.0°C (61°F) [RH = 83%]
Pressure (altimeter): 29.94 inches Hg (1014.0 mb)
Winds: from the E (100 degrees) at 3 MPH (3 knots; 1.5 m/s)
Visibility: 6 or more miles (10+ km)
Ceiling: at least 12,000 feet AGL
Clouds: sky clear below 12,000 feet AGL
Weather: no significant weather observed at this time

METAR text: RJFF 241430Z AUTO VRB02KT 9999 NCD 19/16 Q1014 NOSIG RMK A2996
Conditions at: RJFF (FUKUOKA/ITAZUKE , JP) observed 1430 UTC 24 June 2019
Temperature: 19.0°C (66°F)
Dewpoint: 16.0°C (61°F) [RH = 83%]
Pressure (altimeter): 29.94 inches Hg (1014.0 mb)
Winds: variable direction winds at 2 MPH (2 knots; 1.0 m/s)
Visibility: 6 or more miles (10+ km)
Ceiling: at least 12,000 feet AGL
Clouds: sky clear below 12,000 feet AGL
Weather: no significant weather observed at this time

METAR text: RJFF 241400Z AUTO 10003KT 9999 NCD 20/16 Q1014 NOSIG RMK A2997
Conditions at: RJFF (FUKUOKA/ITAZUKE , JP) observed 1400 UTC 24 June 2019
Temperature: 20.0°C (68°F)
Dewpoint: 16.0°C (61°F) [RH = 78%]
Pressure (altimeter): 29.94 inches Hg (1014.0 mb)
Winds: from the E (100 degrees) at 3 MPH (3 knots; 1.5 m/s)
Visibility: 6 or more miles (10+ km)
Ceiling: at least 12,000 feet AGL
Clouds: sky clear below 12,000 feet AGL
Weather: no significant weather observed at this time

METAR text: RJFF 241330Z 10003KT 060V120 CAVOK 20/16 Q1014 NOSIG RMK A2997
Conditions at: RJFF (FUKUOKA/ITAZUKE , JP) observed 1330 UTC 24 June 2019
Temperature: 20.0°C (68°F)
Dewpoint: 16.0°C (61°F) [RH = 78%]
Pressure (altimeter): 29.94 inches Hg (1014.0 mb)
Winds: from the E (100 degrees) at 3 MPH (3 knots; 1.5 m/s)
Visibility: 6 or more miles (10+ km)
Ceiling: ceiling and visibility are OK
Clouds: unknown
Weather: no significant weather observed at this time

METAR text: RJFF 241300Z VRB01KT CAVOK 20/16 Q1014 NOSIG RMK A2996
Conditions at: RJFF (FUKUOKA/ITAZUKE , JP) observed 1300 UTC 24 June 2019
Temperature: 20.0°C (68°F)
Dewpoint: 16.0°C (61°F) [RH = 78%]
Pressure (altimeter): 29.94 inches Hg (1014.0 mb)
Winds: variable direction winds at 1 MPH (1 knots; 0.5 m/s)
Visibility: 6 or more miles (10+ km)
Ceiling: ceiling and visibility are OK
Clouds: unknown
Weather: no significant weather observed at this time

METAR text: RJFF 241230Z 05003KT 360V080 9999 FEW025 21/16 Q1014 NOSIG RMK 1CU025 A2996
Conditions at: RJFF (FUKUOKA/ITAZUKE , JP) observed 1230 UTC 24 June 2019
Temperature: 21.0°C (70°F)
Dewpoint: 16.0°C (61°F) [RH = 73%]
Pressure (altimeter): 29.94 inches Hg (1014.0 mb)
Winds: from the NE (50 degrees) at 3 MPH (3 knots; 1.5 m/s)
Visibility: 6 or more miles (10+ km)
Ceiling: at least 12,000 feet AGL
Clouds: few clouds at 2500 feet AGL
Weather: no significant weather observed at this time

METAR text: RJFF 241200Z 03003KT 300V080 9999 FEW025 21/16 Q1014 NOSIG RMK 1CU025 A2995
Conditions at: RJFF (FUKUOKA/ITAZUKE , JP) observed 1200 UTC 24 June 2019
Temperature: 21.0°C (70°F)
Dewpoint: 16.0°C (61°F) [RH = 73%]
Pressure (altimeter): 29.94 inches Hg (1014.0 mb)
Winds: from the NNE (30 degrees) at 3 MPH (3 knots; 1.5 m/s)
Visibility: 6 or more miles (10+ km)
Ceiling: at least 12,000 feet AGL
Clouds: few clouds at 2500 feet AGL
Weather: no significant weather observed at this time

METAR text: RJFF 241130Z 01005KT 330V050 9999 FEW025 21/16 Q1013 NOSIG RMK 1CU025 A2993
Conditions at: RJFF (FUKUOKA/ITAZUKE , JP) observed 1130 UTC 24 June 2019
Temperature: 21.0°C (70°F)
Dewpoint: 16.0°C (61°F) [RH = 73%]
Pressure (altimeter): 29.91 inches Hg (1013.0 mb)
Winds: from the N (10 degrees) at 6 MPH (5 knots; 2.6 m/s)
Visibility: 6 or more miles (10+ km)
Ceiling: at least 12,000 feet AGL
Clouds: few clouds at 2500 feet AGL
Weather: no significant weather observed at this time

METAR text: RJFF 241100Z 33007KT 290V360 9999 FEW025 21/16 Q1013 NOSIG RMK 1CU025 A2992
Conditions at: RJFF (FUKUOKA/ITAZUKE , JP) observed 1100 UTC 24 June 2019
Temperature: 21.0°C (70°F)
Dewpoint: 16.0°C (61°F) [RH = 73%]
Pressure (altimeter): 29.91 inches Hg (1013.0 mb)
Winds: from the NNW (330 degrees) at 8 MPH (7 knots; 3.6 m/s)
Visibility: 6 or more miles (10+ km)
Ceiling: at least 12,000 feet AGL
Clouds: few clouds at 2500 feet AGL
Weather: no significant weather observed at this time

METAR text: RJFF 241030Z 34009KT 9999 FEW030 22/15 Q1013 NOSIG RMK 1CU030 A2992
Conditions at: RJFF (FUKUOKA/ITAZUKE , JP) observed 1030 UTC 24 June 2019
Temperature: 22.0°C (72°F)
Dewpoint: 15.0°C (59°F) [RH = 65%]
Pressure (altimeter): 29.91 inches Hg (1013.0 mb)
Winds: from the NNW (340 degrees) at 10 MPH (9 knots; 4.6 m/s)
Visibility: 6 or more miles (10+ km)
Ceiling: at least 12,000 feet AGL
Clouds: few clouds at 3000 feet AGL
Weather: no significant weather observed at this time

METAR text: RJFF 241000Z 34010KT 310V010 9999 FEW030 23/15 Q1012 NOSIG RMK 1CU030 A2991
Conditions at: RJFF (FUKUOKA/ITAZUKE , JP) observed 1000 UTC 24 June 2019
Temperature: 23.0°C (73°F)
Dewpoint: 15.0°C (59°F) [RH = 61%]
Pressure (altimeter): 29.88 inches Hg (1012.0 mb)
Winds: from the NNW (340 degrees) at 12 MPH (10 knots; 5.1 m/s)
Visibility: 6 or more miles (10+ km)
Ceiling: at least 12,000 feet AGL
Clouds: few clouds at 3000 feet AGL
Weather: no significant weather observed at this time

METAR text: RJFF 240930Z 33011KT 9999 FEW030 23/16 Q1012 NOSIG RMK 1CU030 A2990
Conditions at: RJFF (FUKUOKA/ITAZUKE , JP) observed 0930 UTC 24 June 2019
Temperature: 23.0°C (73°F)
Dewpoint: 16.0°C (61°F) [RH = 65%]
Pressure (altimeter): 29.88 inches Hg (1012.0 mb)
Winds: from the NNW (330 degrees) at 13 MPH (11 knots; 5.7 m/s)
Visibility: 6 or more miles (10+ km)
Ceiling: at least 12,000 feet AGL
Clouds: few clouds at 3000 feet AGL
Weather: no significant weather observed at this time

METAR text: RJFF 240900Z 33014KT 9999 FEW030 24/16 Q1012 NOSIG RMK 1CU030 A2989
Conditions at: RJFF (FUKUOKA/ITAZUKE , JP) observed 0900 UTC 24 June 2019
Temperature: 24.0°C (75°F)
Dewpoint: 16.0°C (61°F) [RH = 61%]
Pressure (altimeter): 29.88 inches Hg (1012.0 mb)
Winds: from the NNW (330 degrees) at 16 MPH (14 knots; 7.2 m/s)
Visibility: 6 or more miles (10+ km)
Ceiling: at least 12,000 feet AGL
Clouds: few clouds at 3000 feet AGL
Weather: no significant weather observed at this time

METAR text: RJFF 240830Z 34014KT 9999 FEW030 24/15 Q1012 NOSIG RMK 1CU030 A2988
Conditions at: RJFF (FUKUOKA/ITAZUKE , JP) observed 0830 UTC 24 June 2019
Temperature: 24.0°C (75°F)
Dewpoint: 15.0°C (59°F) [RH = 57%]
Pressure (altimeter): 29.88 inches Hg (1012.0 mb)
Winds: from the NNW (340 degrees) at 16 MPH (14 knots; 7.2 m/s)
Visibility: 6 or more miles (10+ km)
Ceiling: at least 12,000 feet AGL
Clouds: few clouds at 3000 feet AGL
Weather: no significant weather observed at this time

METAR text: RJFF 240800Z 33014KT 9999 FEW035 24/16 Q1011 NOSIG RMK 1CU035 A2987
Conditions at: RJFF (FUKUOKA/ITAZUKE , JP) observed 0800 UTC 24 June 2019
Temperature: 24.0°C (75°F)
Dewpoint: 16.0°C (61°F) [RH = 61%]
Pressure (altimeter): 29.85 inches Hg (1011.0 mb)
Winds: from the NNW (330 degrees) at 16 MPH (14 knots; 7.2 m/s)
Visibility: 6 or more miles (10+ km)
Ceiling: at least 12,000 feet AGL
Clouds: few clouds at 3500 feet AGL
Weather: no significant weather observed at this time

METAR text: RJFF 240730Z 33013KT 9999 FEW035 24/16 Q1011 NOSIG RMK 1CU035 A2988
Conditions at: RJFF (FUKUOKA/ITAZUKE , JP) observed 0730 UTC 24 June 2019
Temperature: 24.0°C (75°F)
Dewpoint: 16.0°C (61°F) [RH = 61%]
Pressure (altimeter): 29.85 inches Hg (1011.0 mb)
Winds: from the NNW (330 degrees) at 15 MPH (13 knots; 6.7 m/s)
Visibility: 6 or more miles (10+ km)
Ceiling: at least 12,000 feet AGL
Clouds: few clouds at 3500 feet AGL
Weather: no significant weather observed at this time

METAR text: RJFF 240700Z 33015KT 9999 FEW035 25/16 Q1011 NOSIG RMK 1CU035 A2988
Conditions at: RJFF (FUKUOKA/ITAZUKE , JP) observed 0700 UTC 24 June 2019
Temperature: 25.0°C (77°F)
Dewpoint: 16.0°C (61°F) [RH = 57%]
Pressure (altimeter): 29.85 inches Hg (1011.0 mb)
Winds: from the NNW (330 degrees) at 17 MPH (15 knots; 7.7 m/s)
Visibility: 6 or more miles (10+ km)
Ceiling: at least 12,000 feet AGL
Clouds: few clouds at 3500 feet AGL
Weather: no significant weather observed at this time

METAR text: RJFF 240630Z 33013KT 300V010 9999 FEW035 24/16 Q1011 NOSIG RMK 1CU035 A2988
Conditions at: RJFF (FUKUOKA/ITAZUKE , JP) observed 0630 UTC 24 June 2019
Temperature: 24.0°C (75°F)
Dewpoint: 16.0°C (61°F) [RH = 61%]
Pressure (altimeter): 29.85 inches Hg (1011.0 mb)
Winds: from the NNW (330 degrees) at 15 MPH (13 knots; 6.7 m/s)
Visibility: 6 or more miles (10+ km)
Ceiling: at least 12,000 feet AGL
Clouds: few clouds at 3500 feet AGL
Weather: no significant weather observed at this time

METAR text: RJFF 240600Z 32014KT 9999 FEW035 25/16 Q1012 NOSIG RMK 1CU035 A2989
Conditions at: RJFF (FUKUOKA/ITAZUKE , JP) observed 0600 UTC 24 June 2019
Temperature: 25.0°C (77°F)
Dewpoint: 16.0°C (61°F) [RH = 57%]
Pressure (altimeter): 29.88 inches Hg (1012.0 mb)
Winds: from the NW (320 degrees) at 16 MPH (14 knots; 7.2 m/s)
Visibility: 6 or more miles (10+ km)
Ceiling: at least 12,000 feet AGL
Clouds: few clouds at 3500 feet AGL
Weather: no significant weather observed at this time

METAR text: RJFF 240530Z 33016KT 9999 FEW035 25/16 Q1012 NOSIG RMK 1CU035 A2988
Conditions at: RJFF (FUKUOKA/ITAZUKE , JP) observed 0530 UTC 24 June 2019
Temperature: 25.0°C (77°F)
Dewpoint: 16.0°C (61°F) [RH = 57%]
Pressure (altimeter): 29.88 inches Hg (1012.0 mb)
Winds: from the NNW (330 degrees) at 18 MPH (16 knots; 8.2 m/s)
Visibility: 6 or more miles (10+ km)
Ceiling: at least 12,000 feet AGL
Clouds: few clouds at 3500 feet AGL
Weather: no significant weather observed at this time

METAR text: RJFF 240500Z 32016KT 9999 FEW030 25/16 Q1012 NOSIG RMK 1CU030 A2988
Conditions at: RJFF (FUKUOKA/ITAZUKE , JP) observed 0500 UTC 24 June 2019
Temperature: 25.0°C (77°F)
Dewpoint: 16.0°C (61°F) [RH = 57%]
Pressure (altimeter): 29.88 inches Hg (1012.0 mb)
Winds: from the NW (320 degrees) at 18 MPH (16 knots; 8.2 m/s)
Visibility: 6 or more miles (10+ km)
Ceiling: at least 12,000 feet AGL
Clouds: few clouds at 3000 feet AGL
Weather: no significant weather observed at this time

METAR text: RJFF 240430Z 32017KT 9999 FEW030 24/16 Q1012 NOSIG RMK 1CU030 A2989
Conditions at: RJFF (FUKUOKA/ITAZUKE , JP) observed 0430 UTC 24 June 2019
Temperature: 24.0°C (75°F)
Dewpoint: 16.0°C (61°F) [RH = 61%]
Pressure (altimeter): 29.88 inches Hg (1012.0 mb)
Winds: from the NW (320 degrees) at 20 MPH (17 knots; 8.7 m/s)
Visibility: 6 or more miles (10+ km)
Ceiling: at least 12,000 feet AGL
Clouds: few clouds at 3000 feet AGL
Weather: no significant weather observed at this time

METAR text: RJFF 240400Z 33014KT 9999 FEW030 25/16 Q1012 NOSIG RMK 1CU030 A2989
Conditions at: RJFF (FUKUOKA/ITAZUKE , JP) observed 0400 UTC 24 June 2019
Temperature: 25.0°C (77°F)
Dewpoint: 16.0°C (61°F) [RH = 57%]
Pressure (altimeter): 29.88 inches Hg (1012.0 mb)
Winds: from the NNW (330 degrees) at 16 MPH (14 knots; 7.2 m/s)
Visibility: 6 or more miles (10+ km)
Ceiling: at least 12,000 feet AGL
Clouds: few clouds at 3000 feet AGL
Weather: no significant weather observed at this time

METAR text: RJFF 240330Z 34013KT 310V020 9999 FEW030 25/16 Q1011 NOSIG RMK 1CU030 A2988
Conditions at: RJFF (FUKUOKA/ITAZUKE , JP) observed 0330 UTC 24 June 2019
Temperature: 25.0°C (77°F)
Dewpoint: 16.0°C (61°F) [RH = 57%]
Pressure (altimeter): 29.85 inches Hg (1011.0 mb)
Winds: from the NNW (340 degrees) at 15 MPH (13 knots; 6.7 m/s)
Visibility: 6 or more miles (10+ km)
Ceiling: at least 12,000 feet AGL
Clouds: few clouds at 3000 feet AGL
Weather: no significant weather observed at this time

METAR text: RJFF 240300Z 33014KT 9999 FEW030 26/16 Q1012 NOSIG RMK 1CU030 A2988
Conditions at: RJFF (FUKUOKA/ITAZUKE , JP) observed 0300 UTC 24 June 2019
Temperature: 26.0°C (79°F)
Dewpoint: 16.0°C (61°F) [RH = 54%]
Pressure (altimeter): 29.88 inches Hg (1012.0 mb)
Winds: from the NNW (330 degrees) at 16 MPH (14 knots; 7.2 m/s)
Visibility: 6 or more miles (10+ km)
Ceiling: at least 12,000 feet AGL
Clouds: few clouds at 3000 feet AGL
Weather: no significant weather observed at this time

METAR text: RJFF 240230Z 32014KT 9999 FEW030 24/16 Q1012 NOSIG RMK 1CU030 A2989
Conditions at: RJFF (FUKUOKA/ITAZUKE , JP) observed 0230 UTC 24 June 2019
Temperature: 24.0°C (75°F)
Dewpoint: 16.0°C (61°F) [RH = 61%]
Pressure (altimeter): 29.88 inches Hg (1012.0 mb)
Winds: from the NW (320 degrees) at 16 MPH (14 knots; 7.2 m/s)
Visibility: 6 or more miles (10+ km)
Ceiling: at least 12,000 feet AGL
Clouds: few clouds at 3000 feet AGL
Weather: no significant weather observed at this time

METAR text: RJFF 240200Z 31015KT 9999 FEW020 24/16 Q1012 NOSIG RMK 1CU020 A2989
Conditions at: RJFF (FUKUOKA/ITAZUKE , JP) observed 0200 UTC 24 June 2019
Temperature: 24.0°C (75°F)
Dewpoint: 16.0°C (61°F) [RH = 61%]
Pressure (altimeter): 29.88 inches Hg (1012.0 mb)
Winds: from the NW (310 degrees) at 17 MPH (15 knots; 7.7 m/s)
Visibility: 6 or more miles (10+ km)
Ceiling: at least 12,000 feet AGL
Clouds: few clouds at 2000 feet AGL
Weather: no significant weather observed at this time

METAR text: RJFF 240130Z 32011KT 280V350 9999 FEW020 SCT035 24/15 Q1012 NOSIG RMK 1CU020 3CU035 A2989
Conditions at: RJFF (FUKUOKA/ITAZUKE , JP) observed 0130 UTC 24 June 2019
Temperature: 24.0°C (75°F)
Dewpoint: 15.0°C (59°F) [RH = 57%]
Pressure (altimeter): 29.88 inches Hg (1012.0 mb)
Winds: from the NW (320 degrees) at 13 MPH (11 knots; 5.7 m/s)
Visibility: 6 or more miles (10+ km)
Ceiling: at least 12,000 feet AGL
Clouds: few clouds at 2000 feet AGL
scattered clouds at 3500 feet AGL
Weather: no significant weather observed at this time

METAR text: RJFF 240100Z 33010KT 290V010 9999 FEW020 SCT030 24/15 Q1012 NOSIG RMK 1CU020 3CU030 A2989
Conditions at: RJFF (FUKUOKA/ITAZUKE , JP) observed 0100 UTC 24 June 2019
Temperature: 24.0°C (75°F)
Dewpoint: 15.0°C (59°F) [RH = 57%]
Pressure (altimeter): 29.88 inches Hg (1012.0 mb)
Winds: from the NNW (330 degrees) at 12 MPH (10 knots; 5.1 m/s)
Visibility: 6 or more miles (10+ km)
Ceiling: at least 12,000 feet AGL
Clouds: few clouds at 2000 feet AGL
scattered clouds at 3000 feet AGL
Weather: no significant weather observed at this time

Forecast for: RJFF (FUKUOKA/ITAZUKE , JP)
Text: TAF RJFF 251105Z 2512/2618 30005KT 9999 FEW040
Forecast period: 1200 UTC 25 June 2019 to 1800 UTC 26 June 2019
Forecast type: FROM: standard forecast or significant change
Winds: from the WNW (300 degrees) at 6 MPH (5 knots; 2.6 m/s)
Visibility: 6 or more miles 10+ km)
Ceiling: at least 12,000 feet AGL
Clouds: few clouds at 4000 feet AGL
Weather: no significant weather forecast for this period
Text: BECMG 2512/2514 16004KT
Forecast period: 1200 UTC 25 June 2019 to 0000 UTC 26 June 2019
Forecast type: BECOMING: Conditions expected to become as follows by 1400 UTC 25 June 2019
Winds: from the SSE (160 degrees) at 5 MPH (4 knots; 2.1 m/s)
Visibility: 6 or more miles 10+ km)
Ceiling: at least 12,000 feet AGL
Clouds: few clouds at 4000 feet AGL
Weather: no significant weather forecast for this period
Text: BECMG 2600/2603 16016KT
Forecast period: 0000 to 1800 UTC 26 June 2019
Forecast type: BECOMING: Conditions expected to become as follows by 0300 UTC 26 June 2019
Winds: from the SSE (160 degrees) at 18 MPH (16 knots; 8.2 m/s)
Visibility: 6 or more miles 10+ km)
Ceiling: at least 12,000 feet AGL
Clouds: few clouds at 4000 feet AGL
Weather: no significant weather forecast for this period